createdAt,value
2022-10-31T00:05:19.790Z,61.70
2022-10-31T00:10:35.094Z,61.50
2022-10-31T00:15:50.599Z,61.40
2022-10-31T00:21:05.854Z,61.30
2022-10-31T00:26:20.773Z,61.30
2022-10-31T00:31:35.817Z,61.20
2022-10-31T00:36:51.792Z,61.10
2022-10-31T00:42:07.180Z,60.90
2022-10-31T00:47:24.816Z,60.80
2022-10-31T00:52:39.577Z,60.80
2022-10-31T00:57:55.196Z,60.90
2022-10-31T01:03:10.844Z,60.90
2022-10-31T01:08:25.878Z,60.80
2022-10-31T01:13:40.803Z,60.60
2022-10-31T01:18:55.806Z,60.50
2022-10-31T01:24:10.824Z,60.60
2022-10-31T01:29:26.121Z,60.50
2022-10-31T01:34:41.820Z,60.60
2022-10-31T01:39:57.141Z,60.50
2022-10-31T01:45:12.823Z,60.50
2022-10-31T01:50:27.794Z,60.70
2022-10-31T01:55:42.822Z,60.90
2022-10-31T02:00:59.617Z,60.90
2022-10-31T02:06:17.812Z,60.90
2022-10-31T02:11:32.816Z,60.90
2022-10-31T02:16:48.147Z,60.70
2022-10-31T02:22:03.833Z,60.70
2022-10-31T02:27:19.151Z,60.80
2022-10-31T02:32:35.582Z,60.80
2022-10-31T02:37:50.828Z,60.60
2022-10-31T02:43:06.107Z,60.50
2022-10-31T02:48:22.120Z,60.40
2022-10-31T02:53:37.604Z,60.30
2022-10-31T02:58:53.135Z,60.20
2022-10-31T03:04:08.663Z,60.50
2022-10-31T03:09:23.807Z,60.40
2022-10-31T03:14:40.139Z,60.40
2022-10-31T03:19:55.829Z,60.30
2022-10-31T03:25:11.152Z,60.10
2022-10-31T03:30:27.249Z,60.10
2022-10-31T03:35:42.816Z,60.10
2022-10-31T03:40:58.166Z,60.10
2022-10-31T03:46:13.823Z,60.00
2022-10-31T03:51:29.160Z,59.80
2022-10-31T03:56:47.157Z,59.80
2022-10-31T04:02:04.947Z,59.60
2022-10-31T04:07:20.112Z,59.60
2022-10-31T04:12:35.838Z,59.50
2022-10-31T04:18:01.089Z,59.50
2022-10-31T04:23:18.845Z,59.30
2022-10-31T04:28:35.222Z,59.20
2022-10-31T04:33:50.839Z,59.10
2022-10-31T04:39:05.801Z,59.10
2022-10-31T04:44:27.115Z,59.10
2022-10-31T04:49:44.152Z,58.90
2022-10-31T04:54:59.854Z,58.80
2022-10-31T05:00:26.859Z,58.60
2022-10-31T05:05:42.612Z,58.50
2022-10-31T05:11:03.259Z,58.30
2022-10-31T05:16:21.143Z,58.40
2022-10-31T05:22:02.929Z,58.50
2022-10-31T05:27:19.890Z,58.70
2022-10-31T05:32:35.180Z,58.80
2022-10-31T05:38:19.843Z,59.00
2022-10-31T05:43:36.850Z,59.20
2022-10-31T05:48:52.854Z,59.30
2022-10-31T05:54:26.171Z,59.20
2022-10-31T05:59:42.054Z,59.20
2022-10-31T06:04:56.879Z,59.20
2022-10-31T06:10:12.162Z,59.30
2022-10-31T06:15:31.883Z,59.40
2022-10-31T06:20:48.839Z,59.60
2022-10-31T06:26:05.165Z,59.70
2022-10-31T06:31:21.838Z,59.80
2022-10-31T06:36:40.004Z,59.90
2022-10-31T06:41:58.116Z,59.80
2022-10-31T06:47:15.488Z,59.90
2022-10-31T06:52:43.524Z,59.90
2022-10-31T06:58:02.818Z,59.80
2022-10-31T07:03:20.858Z,59.80
2022-10-31T07:08:36.078Z,59.80
2022-10-31T07:13:51.251Z,59.80
2022-10-31T07:19:07.049Z,59.80
2022-10-31T07:24:23.101Z,59.80
2022-10-31T07:29:52.831Z,59.80
2022-10-31T07:35:08.834Z,59.60
2022-10-31T07:40:35.911Z,59.80
2022-10-31T07:45:51.159Z,59.80
2022-10-31T07:51:29.858Z,59.50
2022-10-31T07:57:03.879Z,59.50
2022-10-31T08:02:19.602Z,59.00
2022-10-31T08:08:07.158Z,58.50
2022-10-31T08:13:23.177Z,58.20
2022-10-31T08:18:39.683Z,58.10
2022-10-31T08:23:56.867Z,57.60
2022-10-31T08:29:12.200Z,57.40
2022-10-31T08:34:28.868Z,57.20
2022-10-31T08:40:04.241Z,57.10
2022-10-31T08:45:19.865Z,57.20
2022-10-31T08:50:34.861Z,57.00
2022-10-31T08:55:49.864Z,57.00
2022-10-31T09:01:06.741Z,57.10
2022-10-31T09:06:21.920Z,57.10
2022-10-31T09:11:37.165Z,57.00
2022-10-31T09:16:53.231Z,57.00
2022-10-31T09:22:24.936Z,56.50
2022-10-31T09:27:39.866Z,56.30
2022-10-31T11:16:12.940Z,61.90
2022-10-31T11:21:27.981Z,63.00
2022-10-31T11:26:42.939Z,63.10
2022-10-31T11:31:57.974Z,62.50
2022-10-31T11:37:12.983Z,61.90
2022-10-31T11:42:28.298Z,61.40
2022-10-31T11:47:43.938Z,61.00
2022-10-31T11:52:58.936Z,60.50
